Time;durP1;ratioP1;P1;durP2;ratioP2;P2;SDS_P1;SDS_P2;PMS_P1;PMS_P2;Temp;Humidity;BMP_temperature;BMP_pressure;BME280_temperature;BME280_humidity;BME280_pressure;Samples;Min_cycle;Max_cycle;Signal;HPM_P1;HPM_P2
2021/01/18 00:00:08;;;;;;;28.25;3.83;;;3.70;99.90;;;;;;5076664;28;20044;-72
2021/01/18 00:02:34;;;;;;;43.40;4.28;;;3.70;99.90;;;;;;5081701;28;20044;-71
2021/01/18 00:05:01;;;;;;;37.17;4.68;;;3.60;99.90;;;;;;5081723;28;20040;-73
2021/01/18 00:07:26;;;;;;;25.80;3.22;;;3.60;99.90;;;;;;5081771;28;20044;-72
2021/01/18 00:09:52;;;;;;;29.20;4.65;;;3.60;99.90;;;;;;5082542;28;20594;-72
2021/01/18 00:12:18;;;;;;;26.30;3.83;;;3.50;99.90;;;;;;5080743;28;20492;-72
2021/01/18 00:14:44;;;;;;;30.25;3.53;;;3.60;99.90;;;;;;5082355;28;20058;-71
2021/01/18 00:17:09;;;;;;;30.52;3.40;;;3.50;99.90;;;;;;5081747;28;20067;-71
2021/01/18 00:19:35;;;;;;;40.50;3.28;;;3.50;99.90;;;;;;5081910;28;20044;-71
2021/01/18 00:22:01;;;;;;;29.65;3.72;;;3.50;99.90;;;;;;5082003;28;20044;-72
2021/01/18 00:24:26;;;;;;;37.17;3.83;;;3.50;99.90;;;;;;5081669;28;20044;-71
2021/01/18 00:26:52;;;;;;;31.33;4.28;;;3.50;99.90;;;;;;5081732;28;20507;-71
2021/01/18 00:29:18;;;;;;;36.30;4.10;;;3.50;99.90;;;;;;5082044;28;20492;-71
2021/01/18 00:31:46;;;;;;;34.00;5.10;;;3.50;99.90;;;;;;5079812;28;20044;-72
2021/01/18 00:34:13;;;;;;;43.30;4.15;;;3.50;99.90;;;;;;5082302;28;20054;-72
2021/01/18 00:36:46;;;;;;;32.85;3.83;;;3.50;99.90;;;;;;5081749;28;20101;-72
2021/01/18 00:39:12;;;;;;;22.85;4.30;;;3.50;99.90;;;;;;5081598;28;20121;-72
2021/01/18 00:41:41;;;;;;;34.88;3.97;;;3.50;99.90;;;;;;5078163;28;20048;-71
2021/01/18 00:44:08;;;;;;;25.42;3.38;;;3.60;99.90;;;;;;5082257;28;20436;-72
2021/01/18 00:46:34;;;;;;;35.72;3.75;;;3.60;99.90;;;;;;5080914;28;20512;-71
2021/01/18 00:48:59;;;;;;;28.60;3.78;;;3.60;99.90;;;;;;5083132;28;20051;-72
2021/01/18 00:51:25;;;;;;;28.05;4.32;;;3.70;99.90;;;;;;5076904;28;20052;-71
2021/01/18 00:53:50;;;;;;;28.27;3.97;;;3.80;99.90;;;;;;5082689;28;20220;-72
2021/01/18 00:56:16;;;;;;;27.70;2.80;;;3.80;99.90;;;;;;5083989;28;20048;-71
2021/01/18 00:58:44;;;;;;;25.98;3.50;;;3.80;99.90;;;;;;5081199;28;20116;-71
2021/01/18 01:01:10;;;;;;;37.17;4.13;;;3.90;99.90;;;;;;5071412;28;20036;-71
2021/01/18 01:03:36;;;;;;;30.20;4.25;;;3.90;99.90;;;;;;5079804;28;20115;-72
2021/01/18 01:06:02;;;;;;;25.67;4.32;;;3.90;99.90;;;;;;5068714;28;20523;-71
2021/01/18 01:08:28;;;;;;;19.92;3.13;;;4.00;99.90;;;;;;5084357;28;20047;-72
2021/01/18 01:10:53;;;;;;;30.80;3.40;;;4.00;99.90;;;;;;5086245;28;20127;-72
2021/01/18 01:13:19;;;;;;;29.50;3.55;;;4.00;99.90;;;;;;5084279;28;20404;-72
2021/01/18 01:15:44;;;;;;;34.60;3.53;;;3.90;99.90;;;;;;5065634;28;20577;-71
2021/01/18 01:18:10;;;;;;;23.13;3.63;;;3.80;99.90;;;;;;5084522;28;20139;-72
2021/01/18 01:20:36;;;;;;;24.65;3.47;;;3.80;99.90;;;;;;5085512;28;20071;-71
2021/01/18 01:23:02;;;;;;;30.67;3.67;;;3.80;99.90;;;;;;5086088;28;20477;-71
2021/01/18 01:25:27;;;;;;;35.47;4.97;;;3.70;99.90;;;;;;5084569;28;20086;-71
2021/01/18 01:27:53;;;;;;;33.50;4.63;;;3.80;99.90;;;;;;5085902;28;20511;-71
2021/01/18 01:30:21;;;;;;;36.95;4.07;;;3.70;99.90;;;;;;5082683;28;20052;-72
2021/01/18 01:32:49;;;;;;;33.42;4.57;;;3.70;99.90;;;;;;5084296;28;20298;-73
2021/01/18 01:35:26;;;;;;;31.10;4.55;;;3.70;99.90;;;;;;5080620;28;20062;-72
2021/01/18 01:37:53;;;;;;;24.05;4.25;;;3.70;99.90;;;;;;5085452;28;20044;-72
2021/01/18 01:40:19;;;;;;;32.45;4.18;;;3.60;99.90;;;;;;5084605;28;20062;-72
2021/01/18 01:42:45;;;;;;;31.65;4.60;;;3.60;99.90;;;;;;5085384;28;20040;-72
2021/01/18 01:45:13;;;;;;;32.70;3.90;;;3.70;99.90;;;;;;5082028;28;20075;-72
2021/01/18 01:47:45;;;;;;;32.05;4.15;;;3.60;99.90;;;;;;5084296;28;20052;-72
2021/01/18 01:50:15;;;;;;;28.67;4.22;;;3.50;99.90;;;;;;5067891;28;20460;-72
2021/01/18 01:53:15;;;;;;;28.70;3.70;;;3.40;99.90;;;;;;5081975;28;20071;-71
2021/01/18 01:55:41;;;;;;;32.58;5.13;;;3.40;99.90;;;;;;5078876;28;20493;-70
2021/01/18 01:58:07;;;;;;;35.63;3.80;;;3.30;99.90;;;;;;5083304;28;20047;-71
2021/01/18 02:00:36;;;;;;;34.75;2.85;;;3.30;99.90;;;;;;5084608;28;20045;-71
2021/01/18 02:03:11;;;;;;;37.72;5.60;;;3.30;99.90;;;;;;5082075;28;20043;-70
2021/01/18 02:05:37;;;;;;;35.65;5.25;;;3.20;99.90;;;;;;5066495;28;20051;-70
2021/01/18 02:08:06;;;;;;;34.88;4.03;;;3.30;99.90;;;;;;5084420;28;20109;-71
2021/01/18 02:10:33;;;;;;;34.83;3.90;;;3.30;99.90;;;;;;5084342;28;20048;-71
2021/01/18 02:13:00;;;;;;;32.90;4.55;;;3.40;99.90;;;;;;5084040;28;20044;-72
2021/01/18 02:15:37;;;;;;;35.13;4.45;;;3.40;99.90;;;;;;5083980;28;20284;-72
2021/01/18 02:18:19;;;;;;;32.25;3.60;;;3.40;99.90;;;;;;5079269;28;20115;-72
2021/01/18 02:21:27;;;;;;;27.90;4.45;;;3.40;99.90;;;;;;5069600;28;20071;-71
2021/01/18 02:24:06;;;;;;;36.35;4.35;;;3.40;99.90;;;;;;5085388;28;20174;-71
2021/01/18 02:26:53;;;;;;;33.20;5.20;;;3.40;99.90;;;;;;5082071;28;20126;-71
2021/01/18 02:29:42;;;;;;;34.67;4.70;;;3.50;99.90;;;;;;5082324;28;20051;-71
2021/01/18 02:32:41;;;;;;;31.90;4.78;;;3.40;99.90;;;;;;5083991;28;20122;-71
2021/01/18 02:35:25;;;;;;;32.85;4.07;;;3.40;99.90;;;;;;5082421;28;20105;-71
2021/01/18 02:38:04;;;;;;;28.95;4.18;;;3.50;99.90;;;;;;5083625;28;20032;-71
2021/01/18 02:40:55;;;;;;;29.48;3.88;;;3.60;99.90;;;;;;5078055;28;20039;-71
2021/01/18 02:43:26;;;;;;;31.48;3.72;;;3.60;99.90;;;;;;5083337;28;20043;-71
2021/01/18 02:45:52;;;;;;;20.80;3.72;;;3.50;99.90;;;;;;5083099;28;20084;-71
2021/01/18 02:48:19;;;;;;;31.50;3.85;;;3.50;99.90;;;;;;5082476;28;20405;-71
2021/01/18 02:50:47;;;;;;;29.42;3.53;;;3.50;99.90;;;;;;5084420;28;20097;-71
2021/01/18 02:53:13;;;;;;;33.92;3.97;;;3.50;99.90;;;;;;5081396;28;20039;-70
2021/01/18 02:55:39;;;;;;;31.50;4.45;;;3.50;99.90;;;;;;5084784;28;20057;-71
2021/01/18 02:58:09;;;;;;;37.22;3.83;;;3.50;99.90;;;;;;5081320;28;20556;-71
2021/01/18 03:01:03;;;;;;;29.10;4.38;;;3.50;99.90;;;;;;5082936;28;20298;-71
2021/01/18 03:03:38;;;;;;;;;;;3.40;99.90;;;;;;5077765;28;20048;-71
2021/01/18 03:06:18;;;;;;;27.50;4.72;;;3.40;99.90;;;;;;5063977;28;19920;-71
2021/01/18 03:08:50;;;;;;;26.15;4.07;;;3.40;99.90;;;;;;5083787;28;20044;-71
2021/01/18 03:11:26;;;;;;;26.33;5.13;;;3.30;99.90;;;;;;5082615;28;20048;-71
2021/01/18 03:14:01;;;;;;;28.08;3.88;;;3.30;99.90;;;;;;5083482;28;20063;-71
2021/01/18 03:16:36;;;;;;;27.67;4.57;;;3.30;99.90;;;;;;5082583;28;20169;-71
2021/01/18 03:19:04;;;;;;;28.27;4.50;;;3.40;99.90;;;;;;5082477;28;20256;-71
2021/01/18 03:21:30;;;;;;;25.73;4.93;;;3.40;99.90;;;;;;5078773;28;20155;-71
2021/01/18 03:23:56;;;;;;;21.13;3.53;;;3.40;99.90;;;;;;5077093;28;20051;-72
2021/01/18 03:26:25;;;;;;;37.40;4.82;;;3.40;99.90;;;;;;5083044;28;20392;-71
2021/01/18 03:28:52;;;;;;;37.83;5.03;;;3.40;99.90;;;;;;5079015;28;20047;-70
2021/01/18 03:31:18;;;;;;;35.10;4.97;;;3.40;99.90;;;;;;5081573;28;20044;-70
2021/01/18 03:33:43;;;;;;;28.20;4.65;;;3.30;99.90;;;;;;5080542;28;20694;-71
2021/01/18 03:36:09;;;;;;;32.97;4.55;;;3.40;99.90;;;;;;5082650;28;20542;-72
2021/01/18 03:38:35;;;;;;;26.33;4.38;;;3.40;99.90;;;;;;5068665;28;20040;-72
2021/01/18 03:41:02;;;;;;;17.65;4.25;;;3.40;99.90;;;;;;5063684;28;20048;-71
2021/01/18 03:43:27;;;;;;;33.95;5.18;;;3.40;99.90;;;;;;5082036;28;20048;-72
2021/01/18 03:45:53;;;;;;;38.15;5.47;;;3.50;99.90;;;;;;5082912;28;20609;-71
2021/01/18 03:48:19;;;;;;;36.20;4.35;;;3.50;99.90;;;;;;5080860;28;20381;-71
2021/01/18 03:50:44;;;;;;;32.97;4.40;;;3.50;99.90;;;;;;5082600;28;20048;-70
2021/01/18 03:53:10;;;;;;;36.80;5.35;;;3.50;99.90;;;;;;5080554;28;20044;-70
2021/01/18 03:55:37;;;;;;;24.58;4.70;;;3.60;99.90;;;;;;5082672;28;20047;-70
2021/01/18 03:58:03;;;;;;;26.08;4.97;;;3.60;99.90;;;;;;5080885;28;20349;-70
2021/01/18 04:00:30;;;;;;;38.13;5.18;;;3.60;99.90;;;;;;5083230;28;20044;-71
2021/01/18 04:02:56;;;;;;;34.50;5.18;;;3.70;99.90;;;;;;5079652;28;20056;-71
2021/01/18 04:05:23;;;;;;;27.25;5.47;;;3.70;99.90;;;;;;5083075;28;20044;-71
2021/01/18 04:07:50;;;;;;;30.58;5.05;;;3.70;99.90;;;;;;5072991;28;20050;-72
2021/01/18 04:10:21;;;;;;;27.10;5.07;;;3.70;99.90;;;;;;5061886;28;20048;-72
2021/01/18 04:12:48;;;;;;;35.83;6.68;;;3.60;99.90;;;;;;5078258;28;20063;-72
2021/01/18 04:15:15;;;;;;;47.72;6.03;;;3.60;99.90;;;;;;5082042;28;20044;-72
2021/01/18 04:17:42;;;;;;;36.50;5.50;;;3.60;99.90;;;;;;5080822;28;20040;-71
2021/01/18 04:20:12;;;;;;;27.38;5.15;;;3.70;99.90;;;;;;5082509;28;20509;-71
2021/01/18 04:22:47;;;;;;;21.10;4.22;;;3.60;99.90;;;;;;5079437;28;20110;-71
2021/01/18 04:25:14;;;;;;;32.60;5.60;;;3.60;99.90;;;;;;5081702;28;20660;-71
2021/01/18 04:27:48;;;;;;;38.88;5.18;;;3.60;99.90;;;;;;5081382;28;20117;-71
2021/01/18 04:30:14;;;;;;;31.33;4.93;;;3.60;99.90;;;;;;5083559;28;20576;-71
2021/01/18 04:32:40;;;;;;;33.58;7.38;;;3.50;99.90;;;;;;5084755;28;20044;-71
2021/01/18 04:35:07;;;;;;;32.58;5.32;;;3.60;99.90;;;;;;5086390;28;20471;-71
2021/01/18 04:37:33;;;;;;;32.67;5.65;;;3.60;99.90;;;;;;5083457;28;20072;-72
2021/01/18 04:39:59;;;;;;;36.00;7.38;;;3.60;99.90;;;;;;5087368;28;20101;-71
2021/01/18 04:42:26;;;;;;;32.72;6.97;;;3.60;99.90;;;;;;5076539;28;20060;-72
2021/01/18 04:44:55;;;;;;;35.40;6.65;;;3.60;99.90;;;;;;5065539;28;20489;-69
2021/01/18 04:47:25;;;;;;;32.58;5.32;;;3.60;99.90;;;;;;5081133;28;20131;-71
2021/01/18 04:49:55;;;;;;;31.00;5.95;;;3.60;99.90;;;;;;5087170;28;20093;-70
2021/01/18 04:52:41;;;;;;;39.85;7.22;;;3.60;99.90;;;;;;5073078;28;20456;-71
2021/01/18 04:55:30;;;;;;;40.65;7.43;;;3.70;99.90;;;;;;5065591;28;20045;-70
2021/01/18 04:58:07;;;;;;;43.00;8.35;;;3.60;99.90;;;;;;5086993;28;20488;-70
2021/01/18 05:00:38;;;;;;;34.05;7.00;;;3.70;99.90;;;;;;5085728;28;20304;-71
2021/01/18 05:03:06;;;;;;;42.80;7.68;;;3.60;99.90;;;;;;5082401;28;20396;-71
2021/01/18 05:05:45;;;;;;;41.47;7.30;;;3.60;99.90;;;;;;5084391;28;20044;-71
2021/01/18 05:09:07;;;;;;;31.73;6.90;;;3.50;99.90;;;;;;5084200;28;20039;-70
2021/01/18 05:11:34;;;;;;;49.85;7.85;;;3.60;99.90;;;;;;5084601;28;20094;-70
2021/01/18 05:14:01;;;;;;;30.20;5.95;;;3.60;99.90;;;;;;5085719;28;20385;-70
2021/01/18 05:16:32;;;;;;;35.88;7.30;;;3.70;99.90;;;;;;5083174;28;20127;-70
2021/01/18 05:19:13;;;;;;;34.30;6.20;;;3.70;99.90;;;;;;5085454;28;20040;-70
2021/01/18 05:21:40;;;;;;;47.03;7.10;;;3.80;99.90;;;;;;5084646;28;20127;-70
2021/01/18 05:24:06;;;;;;;35.10;6.18;;;3.80;99.90;;;;;;5085095;28;20121;-72
2021/01/18 05:26:32;;;;;;;47.22;7.72;;;3.80;99.90;;;;;;5084334;28;20432;-71
2021/01/18 05:28:58;;;;;;;45.67;7.30;;;3.90;99.90;;;;;;5085397;28;20044;-71
2021/01/18 05:31:26;;;;;;;36.70;7.00;;;3.90;99.90;;;;;;5084474;28;20059;-71
2021/01/18 05:33:56;;;;;;;37.47;7.15;;;3.90;99.90;;;;;;5085558;28;20062;-71
2021/01/18 05:36:43;;;;;;;33.40;6.85;;;3.90;99.90;;;;;;5084237;28;20040;-71
2021/01/18 05:39:19;;;;;;;39.83;8.75;;;4.00;99.90;;;;;;5084483;28;20433;-70
2021/01/18 05:41:47;;;;;;;40.72;8.73;;;4.10;99.90;;;;;;5072449;28;20132;-70
2021/01/18 05:44:13;;;;;;;37.28;7.00;;;4.10;99.90;;;;;;5064585;28;20044;-70
2021/01/18 05:46:41;;;;;;;36.53;6.40;;;4.10;99.90;;;;;;5080624;28;20233;-70
2021/01/18 05:49:18;;;;;;;46.05;7.32;;;4.10;99.90;;;;;;5084971;28;20052;-71
2021/01/18 05:51:51;;;;;;;31.33;7.22;;;4.20;99.90;;;;;;5083691;28;20386;-71
2021/01/18 05:54:22;;;;;;;44.03;7.40;;;4.10;99.90;;;;;;5084536;28;20040;-71
2021/01/18 05:56:51;;;;;;;32.47;7.07;;;4.20;99.90;;;;;;5084815;28;20040;-70
2021/01/18 05:59:21;;;;;;;44.35;6.85;;;4.30;99.90;;;;;;5083164;28;20043;-71
2021/01/18 06:01:48;;;;;;;42.42;6.43;;;4.20;99.90;;;;;;5083462;28;20054;-72
2021/01/18 06:04:19;;;;;;;34.63;8.05;;;4.20;99.90;;;;;;5084146;28;20048;-71
2021/01/18 06:07:04;;;;;;;27.65;7.00;;;4.10;99.90;;;;;;5084504;28;20056;-72
2021/01/18 06:09:44;;;;;;;35.58;9.18;;;4.10;99.90;;;;;;5084181;28;20040;-72
2021/01/18 06:12:20;;;;;;;51.70;9.75;;;4.10;99.90;;;;;;5083482;28;20297;-72
2021/01/18 06:15:05;;;;;;;39.05;7.72;;;4.10;99.90;;;;;;5084388;28;20036;-72
2021/01/18 06:17:31;;;;;;;42.88;9.85;;;4.00;99.90;;;;;;5083305;28;20044;-71
2021/01/18 06:19:59;;;;;;;42.42;10.52;;;4.10;99.90;;;;;;5083664;28;20040;-71
2021/01/18 06:22:29;;;;;;;48.10;9.65;;;4.10;99.90;;;;;;5083414;28;20051;-71
2021/01/18 06:25:10;;;;;;;37.92;8.77;;;4.10;99.90;;;;;;5078920;28;20036;-71
2021/01/18 06:27:35;;;;;;;40.83;9.85;;;4.20;99.90;;;;;;5071807;28;20408;-71
2021/01/18 06:30:02;;;;;;;30.88;8.90;;;4.20;99.90;;;;;;5084876;28;20485;-71
2021/01/18 06:32:32;;;;;;;41.08;10.18;;;4.20;99.90;;;;;;5082653;28;20036;-71
2021/01/18 06:35:03;;;;;;;45.67;9.23;;;4.10;99.90;;;;;;5082279;28;20044;-71
2021/01/18 06:37:34;;;;;;;43.60;10.10;;;4.10;99.90;;;;;;5083255;28;20032;-71
2021/01/18 06:40:03;;;;;;;54.55;10.60;;;4.10;99.90;;;;;;5083455;28;20062;-71
2021/01/18 06:42:29;;;;;;;43.88;11.43;;;4.20;99.90;;;;;;5083420;28;20408;-71
2021/01/18 06:44:55;;;;;;;52.70;11.77;;;4.20;99.90;;;;;;5078090;28;20040;-72
2021/01/18 06:47:28;;;;;;;48.13;10.73;;;4.20;99.90;;;;;;5081637;28;20131;-71
2021/01/18 06:49:57;;;;;;;44.03;10.68;;;4.20;99.90;;;;;;5084229;28;20047;-70
2021/01/18 06:52:29;;;;;;;39.80;11.25;;;4.20;99.90;;;;;;5083320;28;20060;-71
2021/01/18 06:55:07;;;;;;;54.70;10.60;;;4.20;99.90;;;;;;5082036;28;20043;-71
2021/01/18 06:58:01;;;;;;;54.72;10.95;;;4.30;99.90;;;;;;5083410;28;20044;-72
2021/01/18 07:00:29;;;;;;;46.50;10.25;;;4.40;99.90;;;;;;5082085;28;20086;-70
2021/01/18 07:02:57;;;;;;;46.85;10.90;;;4.40;99.90;;;;;;5083421;28;20493;-73
2021/01/18 07:05:31;;;;;;;49.40;11.73;;;4.50;99.90;;;;;;5078076;28;20097;-71
2021/01/18 07:08:11;;;;;;;39.85;9.55;;;4.60;99.90;;;;;;5083356;28;20138;-72
2021/01/18 07:10:39;;;;;;;44.78;11.27;;;4.60;99.90;;;;;;5079670;28;20048;-72
2021/01/18 07:13:06;;;;;;;40.05;9.50;;;4.60;99.90;;;;;;5080865;28;20044;-70
2021/01/18 07:15:35;;;;;;;46.63;9.43;;;4.60;99.90;;;;;;5079841;28;20335;-71
2021/01/18 07:18:06;;;;;;;40.00;9.73;;;4.60;99.90;;;;;;5078410;28;20044;-70
2021/01/18 07:20:38;;;;;;;39.45;9.02;;;4.70;99.90;;;;;;5073946;28;20243;-71
2021/01/18 07:23:07;;;;;;;35.90;8.82;;;4.70;99.90;;;;;;5078431;28;20665;-70
2021/01/18 07:25:35;;;;;;;42.65;8.07;;;4.70;99.90;;;;;;5073689;28;20264;-72
2021/01/18 07:28:03;;;;;;;41.55;8.35;;;4.80;99.90;;;;;;5078818;28;20040;-72
2021/01/18 07:30:36;;;;;;;44.22;8.30;;;4.80;99.90;;;;;;5080000;28;20039;-71
2021/01/18 07:33:14;;;;;;;44.15;8.15;;;4.80;99.90;;;;;;5081467;28;20044;-71
2021/01/18 07:35:42;;;;;;;41.58;7.93;;;4.90;99.90;;;;;;5062642;28;20378;-71
2021/01/18 07:38:17;;;;;;;31.55;6.68;;;5.00;99.90;;;;;;5061221;28;20055;-71
2021/01/18 07:41:08;;;;;;;43.72;7.03;;;5.00;99.90;;;;;;5077660;28;20100;-71
2021/01/18 07:43:44;;;;;;;33.80;6.30;;;5.00;99.90;;;;;;5081606;28;20076;-71
2021/01/18 07:46:25;;;;;;;44.85;8.80;;;5.00;99.90;;;;;;5077190;28;20722;-70
2021/01/18 07:49:12;;;;;;;37.03;7.05;;;5.00;99.90;;;;;;5081637;28;20036;-69
2021/01/18 07:51:38;;;;;;;42.97;7.15;;;5.00;99.90;;;;;;5078531;28;20048;-69
2021/01/18 07:54:03;;;;;;;37.33;6.60;;;5.00;99.90;;;;;;5080083;28;20040;-71
2021/01/18 07:56:30;;;;;;;33.70;6.97;;;5.00;99.90;;;;;;5080941;28;20470;-70
2021/01/18 07:58:58;;;;;;;33.75;7.10;;;5.00;99.90;;;;;;5081867;28;20356;-71
2021/01/18 08:01:27;;;;;;;30.60;7.25;;;5.00;99.90;;;;;;5082283;28;20131;-72
2021/01/18 08:03:53;;;;;;;34.75;6.60;;;5.10;99.90;;;;;;5081645;28;20040;-71
2021/01/18 08:06:19;;;;;;;36.20;6.63;;;5.10;99.90;;;;;;5077619;28;20055;-71
2021/01/18 08:08:45;;;;;;;44.63;7.65;;;5.10;99.90;;;;;;5072284;28;20116;-71
2021/01/18 08:11:17;;;;;;;36.88;6.55;;;5.10;99.90;;;;;;5082025;28;20047;-69
2021/01/18 08:13:51;;;;;;;45.70;7.43;;;5.10;99.90;;;;;;5081198;28;20044;-71
2021/01/18 08:16:27;;;;;;;34.35;6.15;;;5.10;99.90;;;;;;5061838;28;20080;-72
2021/01/18 08:19:01;;;;;;;33.63;5.80;;;5.20;99.90;;;;;;5076998;28;20038;-71
2021/01/18 08:21:35;;;;;;;36.42;7.15;;;5.20;99.90;;;;;;5064583;28;20500;-71
2021/01/18 08:24:04;;;;;;;38.22;6.70;;;5.20;99.90;;;;;;5080759;28;20054;-70
2021/01/18 08:26:59;;;;;;;41.55;6.82;;;5.20;99.90;;;;;;5082059;28;20048;-73
2021/01/18 08:29:52;;;;;;;33.83;5.38;;;5.20;99.90;;;;;;5081220;28;20048;-72
2021/01/18 08:32:20;;;;;;;42.38;6.75;;;5.20;99.90;;;;;;5074343;28;20036;-70
2021/01/18 08:35:07;;;;;;;31.42;5.57;;;5.10;99.90;;;;;;5080166;28;20253;-71
2021/01/18 08:37:36;;;;;;;42.35;6.68;;;5.10;99.90;;;;;;5077828;28;20127;-72
2021/01/18 08:40:14;;;;;;;23.02;5.10;;;5.10;99.90;;;;;;5082462;28;20492;-71
2021/01/18 08:42:41;;;;;;;33.47;5.82;;;5.10;99.90;;;;;;5082061;28;20098;-72
2021/01/18 08:45:30;;;;;;;31.70;6.95;;;5.20;99.90;;;;;;5079166;28;20101;-72
2021/01/18 08:48:01;;;;;;;41.08;6.47;;;5.20;99.90;;;;;;5078719;28;20047;-72
2021/01/18 08:50:30;;;;;;;30.73;5.85;;;5.20;99.90;;;;;;5081006;28;20056;-71
2021/01/18 08:52:57;;;;;;;31.15;5.22;;;5.20;99.90;;;;;;5080153;28;20047;-71
2021/01/18 08:55:29;;;;;;;26.95;5.70;;;5.20;99.90;;;;;;5081627;28;20382;-71
2021/01/18 08:58:02;;;;;;;29.90;5.07;;;5.30;99.90;;;;;;5080834;28;20143;-71
2021/01/18 09:00:38;;;;;;;33.40;5.53;;;5.30;99.90;;;;;;5079903;28;21000;-70
2021/01/18 09:03:04;;;;;;;29.20;4.50;;;5.40;99.90;;;;;;5080061;28;20036;-70
2021/01/18 09:05:29;;;;;;;28.45;4.80;;;5.40;99.90;;;;;;5081770;28;20051;-70
2021/01/18 09:07:56;;;;;;;30.33;4.53;;;5.50;99.90;;;;;;5080544;28;20613;-71
2021/01/18 09:10:23;;;;;;;31.52;5.80;;;5.50;99.90;;;;;;5081555;28;20044;-71
2021/01/18 09:12:50;;;;;;;30.20;5.22;;;5.50;99.90;;;;;;5076408;28;20484;-70
2021/01/18 09:15:18;;;;;;;31.27;4.47;;;5.50;99.90;;;;;;5080560;28;20040;-74
2021/01/18 09:17:45;;;;;;;35.83;5.25;;;5.50;99.90;;;;;;5084600;28;20047;-71
2021/01/18 09:20:12;;;;;;;25.70;4.47;;;5.50;99.90;;;;;;5079272;28;20040;-71
2021/01/18 09:22:44;;;;;;;27.98;5.13;;;5.50;99.90;;;;;;5074186;28;20048;-72
2021/01/18 09:25:12;;;;;;;34.50;4.97;;;5.50;99.90;;;;;;5082934;28;20073;-71
2021/01/18 09:27:38;;;;;;;40.78;6.05;;;5.50;99.90;;;;;;5084318;28;20036;-71
2021/01/18 09:30:09;;;;;;;26.40;4.57;;;5.50;99.90;;;;;;5072974;28;20040;-72
2021/01/18 09:32:36;;;;;;;26.50;3.97;;;5.60;99.90;;;;;;5081985;28;20115;-69
2021/01/18 09:35:09;;;;;;;25.20;3.75;;;5.60;99.90;;;;;;5084662;28;20498;-71
2021/01/18 09:37:42;;;;;;;40.45;4.25;;;5.60;99.90;;;;;;5084651;28;20066;-71
2021/01/18 09:40:08;;;;;;;;;;;5.70;99.90;;;;;;5084960;28;20051;-71
2021/01/18 09:42:35;;;;;;;34.10;6.32;;;5.70;99.90;;;;;;5082805;28;20383;-71
2021/01/18 09:45:02;;;;;;;34.65;5.50;;;5.70;99.90;;;;;;5083099;28;20044;-71
2021/01/18 09:47:31;;;;;;;31.13;5.00;;;5.70;99.90;;;;;;5081789;28;20048;-71
2021/01/18 09:50:12;;;;;;;33.65;5.15;;;5.80;99.90;;;;;;5083560;28;20044;-72
2021/01/18 09:52:46;;;;;;;34.40;5.07;;;5.80;99.90;;;;;;5082388;28;20558;-72
2021/01/18 09:55:23;;;;;;;26.08;4.60;;;5.80;99.90;;;;;;5079193;28;20471;-71
2021/01/18 09:58:10;;;;;;;30.67;6.30;;;5.80;99.90;;;;;;5079637;28;20527;-71
2021/01/18 10:00:39;;;;;;;26.80;4.65;;;5.80;99.90;;;;;;5077915;28;20416;-70
2021/01/18 10:03:05;;;;;;;33.53;5.57;;;5.80;99.90;;;;;;5081445;28;20040;-70
2021/01/18 10:05:38;;;;;;;30.75;4.93;;;5.80;99.90;;;;;;5084736;28;20366;-70
2021/01/18 10:08:21;;;;;;;52.08;8.25;;;5.80;99.90;;;;;;5083097;28;20043;-71
2021/01/18 10:10:49;;;;;;;29.92;6.38;;;5.90;99.90;;;;;;5083355;28;20176;-71
2021/01/18 10:13:19;;;;;;;29.58;5.80;;;5.90;99.90;;;;;;5084226;28;20117;-71
2021/01/18 10:15:47;;;;;;;33.22;4.72;;;5.90;99.90;;;;;;5080905;28;20504;-71
2021/01/18 10:18:44;;;;;;;33.60;5.53;;;5.90;99.90;;;;;;5081375;28;20044;-71
2021/01/18 10:21:11;;;;;;;23.33;3.85;;;5.90;99.90;;;;;;5082835;28;20043;-71
2021/01/18 10:23:39;;;;;;;31.70;4.57;;;5.90;99.90;;;;;;5083741;28;20104;-72
2021/01/18 10:26:22;;;;;;;34.45;6.72;;;5.90;99.90;;;;;;5081657;28;20101;-70
2021/01/18 10:29:22;;;;;;;22.88;3.40;;;5.90;99.90;;;;;;5080981;28;20052;-71
2021/01/18 10:31:51;;;;;;;23.60;3.65;;;5.90;99.90;;;;;;5081589;28;20044;-73
2021/01/18 10:34:23;;;;;;;27.10;4.20;;;5.90;99.90;;;;;;5083989;28;20089;-72
2021/01/18 10:36:51;;;;;;;35.90;5.22;;;5.90;99.90;;;;;;5081288;28;20040;-71
2021/01/18 10:39:31;;;;;;;29.75;4.13;;;5.90;99.90;;;;;;5082500;28;20600;-71
2021/01/18 10:42:18;;;;;;;24.17;4.88;;;5.90;99.90;;;;;;5082347;28;20047;-73
2021/01/18 10:44:55;;;;;;;25.65;3.83;;;5.90;99.90;;;;;;5082952;28;20044;-73
2021/01/18 10:47:28;;;;;;;37.17;4.35;;;6.00;99.90;;;;;;5082946;28;20059;-72
2021/01/18 10:50:01;;;;;;;26.17;4.50;;;5.90;99.90;;;;;;5083301;28;20628;-72
2021/01/18 10:52:39;;;;;;;20.40;4.20;;;6.00;99.90;;;;;;5079364;28;20043;-71
2021/01/18 10:55:06;;;;;;;29.92;4.97;;;6.00;99.90;;;;;;5078437;28;20046;-71
2021/01/18 10:57:46;;;;;;;34.38;4.07;;;6.00;99.90;;;;;;5079488;28;20032;-72
2021/01/18 11:00:16;;;;;;;30.85;4.15;;;6.00;99.90;;;;;;5077448;28;20039;-70
2021/01/18 11:02:51;;;;;;;31.88;4.60;;;6.00;99.90;;;;;;5081555;28;20168;-70
2021/01/18 11:05:18;;;;;;;23.67;4.10;;;6.10;99.90;;;;;;5079081;28;20392;-72
2021/01/18 11:07:47;;;;;;;24.63;4.65;;;6.10;99.90;;;;;;5079036;28;20516;-71
2021/01/18 11:10:13;;;;;;;34.65;5.05;;;6.10;99.90;;;;;;5080183;28;20036;-71
2021/01/18 11:12:41;;;;;;;23.25;3.53;;;6.10;99.90;;;;;;5080998;28;20078;-71
2021/01/18 11:15:09;;;;;;;24.77;4.43;;;6.20;99.90;;;;;;5079459;28;20520;-72
2021/01/18 11:17:35;;;;;;;37.50;4.90;;;6.20;99.90;;;;;;5078084;28;20145;-72
2021/01/18 11:20:05;;;;;;;40.88;5.45;;;6.20;99.90;;;;;;5079892;28;20051;-72
2021/01/18 11:22:31;;;;;;;24.80;4.05;;;6.30;99.90;;;;;;5078105;28;20068;-71
2021/01/18 11:24:56;;;;;;;29.50;4.53;;;6.30;99.90;;;;;;5081487;28;20501;-71
2021/01/18 11:27:22;;;;;;;26.85;4.15;;;6.30;99.90;;;;;;5081447;28;20277;-72
2021/01/18 11:29:48;;;;;;;30.98;4.35;;;6.30;99.90;;;;;;5081103;28;20141;-73
2021/01/18 11:32:15;;;;;;;27.45;3.83;;;6.30;99.90;;;;;;5082067;28;20046;-72
2021/01/18 11:34:40;;;;;;;20.25;3.28;;;6.30;99.90;;;;;;5080031;28;20048;-72
2021/01/18 11:37:07;;;;;;;37.28;4.13;;;6.40;99.90;;;;;;5078402;28;20039;-73
2021/01/18 11:39:33;;;;;;;38.88;4.60;;;6.40;99.90;;;;;;5082414;28;20051;-71
2021/01/18 11:42:03;;;;;;;39.53;7.32;;;6.40;99.90;;;;;;5082006;28;20404;-72
2021/01/18 11:44:29;;;;;;;35.50;5.20;;;6.50;99.90;;;;;;5075750;28;20051;-72
2021/01/18 11:46:56;;;;;;;25.80;4.10;;;6.50;99.90;;;;;;5080156;28;20064;-72
2021/01/18 11:49:21;;;;;;;35.20;5.32;;;6.50;99.90;;;;;;5082221;28;20404;-71
2021/01/18 11:51:47;;;;;;;28.20;4.10;;;6.60;99.90;;;;;;5076882;28;20044;-72
2021/01/18 11:54:13;;;;;;;28.45;4.55;;;6.60;99.90;;;;;;5081897;28;20542;-73
2021/01/18 11:56:41;;;;;;;32.42;4.57;;;6.60;99.90;;;;;;5081203;28;20128;-72
2021/01/18 11:59:07;;;;;;;28.90;4.15;;;6.60;99.90;;;;;;5082248;28;20064;-71
2021/01/18 12:01:39;;;;;;;32.63;5.53;;;6.60;99.90;;;;;;5080758;28;20048;-72
2021/01/18 12:04:04;;;;;;;31.27;3.75;;;6.60;99.90;;;;;;5081604;28;20048;-71
2021/01/18 12:06:36;;;;;;;33.85;5.03;;;6.70;99.90;;;;;;5082191;28;20040;-71
2021/01/18 12:09:04;;;;;;;23.58;3.92;;;6.70;99.90;;;;;;5081086;28;20040;-71
2021/01/18 12:11:30;;;;;;;33.75;6.97;;;6.70;99.90;;;;;;5082113;28;20400;-70
2021/01/18 12:13:55;;;;;;;33.70;4.82;;;6.60;99.90;;;;;;5079561;28;20044;-72
2021/01/18 12:16:27;;;;;;;22.83;4.22;;;6.60;99.90;;;;;;5078608;28;20484;-72
2021/01/18 12:18:54;;;;;;;25.98;3.60;;;6.70;99.90;;;;;;5081990;28;20757;-72
2021/01/18 12:21:20;;;;;;;23.85;3.50;;;6.60;99.90;;;;;;5081791;28;20036;-73
2021/01/18 12:23:46;;;;;;;25.55;4.78;;;6.70;99.90;;;;;;5081251;28;20056;-72
2021/01/18 12:26:19;;;;;;;31.48;3.38;;;6.60;99.90;;;;;;5080320;28;20279;-71
2021/01/18 12:28:47;;;;;;;19.65;3.58;;;6.60;99.90;;;;;;5080609;28;20131;-72
2021/01/18 12:31:13;;;;;;;33.35;6.45;;;6.60;99.90;;;;;;5080475;28;20040;-72
2021/01/18 12:33:39;;;;;;;26.00;5.63;;;6.60;99.90;;;;;;5079109;28;20505;-71
2021/01/18 12:36:05;;;;;;;23.90;6.47;;;6.60;99.90;;;;;;5078228;28;20028;-71
2021/01/18 12:38:31;;;;;;;33.60;5.15;;;6.70;99.90;;;;;;5080159;28;20092;-71
2021/01/18 12:40:56;;;;;;;29.83;5.35;;;6.60;99.90;;;;;;5079688;28;20105;-72
2021/01/18 12:43:22;;;;;;;29.23;4.10;;;6.60;99.90;;;;;;5082050;28;20044;-71
2021/01/18 12:45:48;;;;;;;18.77;3.50;;;6.60;99.90;;;;;;5079673;28;20143;-73
2021/01/18 12:48:15;;;;;;;23.42;4.47;;;6.60;99.90;;;;;;5080191;28;20451;-72
2021/01/18 12:50:41;;;;;;;19.95;3.08;;;6.70;99.90;;;;;;5081524;28;20111;-71
2021/01/18 12:53:07;;;;;;;16.73;3.35;;;6.70;99.90;;;;;;5085448;28;20069;-72
2021/01/18 12:55:33;;;;;;;23.48;3.63;;;6.70;99.90;;;;;;5085253;28;20208;-71
2021/01/18 12:58:01;;;;;;;23.52;4.07;;;6.80;99.90;;;;;;5084993;28;20115;-73
2021/01/18 13:00:27;;;;;;;22.65;3.67;;;6.80;99.90;;;;;;5085101;28;20078;-72
2021/01/18 13:02:53;;;;;;;19.15;3.05;;;6.90;99.90;;;;;;5084586;28;20064;-71
2021/01/18 13:05:18;;;;;;;25.67;4.75;;;6.90;99.90;;;;;;5084890;28;20459;-71